Izmir/Cumaovasi, Turkey
Current Conditions -  °F | °C
As of 12:20 AM on Thursday 27 Nov 2014 (Local Time) from LTBJ Reporting Station
Clear Clear  
Wind Chill: 37°   Ceiling: Unl
Heat Index: 43°   Visibility: 6mi
Dew Point: 34°   Wind: 9mph
Humidity: 70%   Direction: 20°NNE
Pressure: 30.09"   Gusts: NA
Location:  38.21°N, 27.17°E
Report Text: LTBJ 262120Z 02008KT CAVOK 06/01 Q1019 NOSIG
Loading
Personal Weather Stations






























Interactive Weather Map New forecast layout! Learn more

10-Day Weather Forecast

Advertisements
Track Severe Weather on mobile